sensor_id;sensor_type;location;lat;lon;timestamp;P1;durP1;ratioP1;P2;durP2;ratioP2
19278;SDS011;9773;47.062;15.446;2023-03-21T00:01:04;3.60;;;3.30;;
19278;SDS011;9773;47.062;15.446;2023-03-21T00:03:31;3.43;;;3.13;;
19278;SDS011;9773;47.062;15.446;2023-03-21T00:05:58;3.10;;;2.90;;
19278;SDS011;9773;47.062;15.446;2023-03-21T00:08:29;3.73;;;3.43;;
19278;SDS011;9773;47.062;15.446;2023-03-21T00:10:56;2.97;;;2.77;;
19278;SDS011;9773;47.062;15.446;2023-03-21T00:13:23;2.90;;;2.70;;
19278;SDS011;9773;47.062;15.446;2023-03-21T00:15:50;3.10;;;2.90;;
19278;SDS011;9773;47.062;15.446;2023-03-21T00:18:19;3.10;;;2.90;;
19278;SDS011;9773;47.062;15.446;2023-03-21T00:20:57;2.87;;;2.67;;
19278;SDS011;9773;47.062;15.446;2023-03-21T00:23:24;3.53;;;3.27;;
19278;SDS011;9773;47.062;15.446;2023-03-21T00:25:51;2.77;;;2.53;;
19278;SDS011;9773;47.062;15.446;2023-03-21T00:28:17;3.17;;;2.97;;
19278;SDS011;9773;47.062;15.446;2023-03-21T00:30:43;3.10;;;2.73;;
19278;SDS011;9773;47.062;15.446;2023-03-21T00:33:09;2.90;;;2.70;;
19278;SDS011;9773;47.062;15.446;2023-03-21T00:35:37;3.87;;;2.87;;
19278;SDS011;9773;47.062;15.446;2023-03-21T00:38:03;3.43;;;2.60;;
19278;SDS011;9773;47.062;15.446;2023-03-21T00:40:29;2.63;;;2.43;;
19278;SDS011;9773;47.062;15.446;2023-03-21T00:42:55;3.13;;;2.93;;
19278;SDS011;9773;47.062;15.446;2023-03-21T00:45:21;3.10;;;2.90;;
19278;SDS011;9773;47.062;15.446;2023-03-21T00:47:47;3.03;;;2.60;;
19278;SDS011;9773;47.062;15.446;2023-03-21T00:50:12;2.40;;;2.30;;
19278;SDS011;9773;47.062;15.446;2023-03-21T00:52:38;4.00;;;2.73;;
19278;SDS011;9773;47.062;15.446;2023-03-21T00:55:04;2.63;;;2.43;;
19278;SDS011;9773;47.062;15.446;2023-03-21T00:57:31;3.30;;;2.47;;
19278;SDS011;9773;47.062;15.446;2023-03-21T00:59:57;2.63;;;2.43;;
19278;SDS011;9773;47.062;15.446;2023-03-21T01:02:24;2.83;;;2.63;;
19278;SDS011;9773;47.062;15.446;2023-03-21T01:04:51;2.63;;;2.43;;
19278;SDS011;9773;47.062;15.446;2023-03-21T01:07:19;2.73;;;2.53;;
19278;SDS011;9773;47.062;15.446;2023-03-21T01:09:45;3.17;;;2.87;;
19278;SDS011;9773;47.062;15.446;2023-03-21T01:12:11;2.40;;;2.30;;
19278;SDS011;9773;47.062;15.446;2023-03-21T01:14:37;2.87;;;2.67;;
19278;SDS011;9773;47.062;15.446;2023-03-21T01:17:03;2.73;;;2.53;;
19278;SDS011;9773;47.062;15.446;2023-03-21T01:19:29;3.40;;;3.10;;
19278;SDS011;9773;47.062;15.446;2023-03-21T01:21:55;2.67;;;2.57;;
19278;SDS011;9773;47.062;15.446;2023-03-21T01:24:21;2.73;;;2.53;;
19278;SDS011;9773;47.062;15.446;2023-03-21T01:26:47;2.80;;;2.60;;
19278;SDS011;9773;47.062;15.446;2023-03-21T01:29:13;3.23;;;2.13;;
19278;SDS011;9773;47.062;15.446;2023-03-21T01:31:39;2.90;;;2.70;;
19278;SDS011;9773;47.062;15.446;2023-03-21T01:34:04;3.03;;;2.83;;
19278;SDS011;9773;47.062;15.446;2023-03-21T01:36:30;2.37;;;2.17;;
19278;SDS011;9773;47.062;15.446;2023-03-21T01:38:56;2.87;;;2.67;;
19278;SDS011;9773;47.062;15.446;2023-03-21T01:43:48;2.67;;;2.43;;
19278;SDS011;9773;47.062;15.446;2023-03-21T01:46:24;2.23;;;2.13;;
19278;SDS011;9773;47.062;15.446;2023-03-21T01:48:54;2.60;;;2.40;;
19278;SDS011;9773;47.062;15.446;2023-03-21T01:51:24;4.43;;;2.50;;
19278;SDS011;9773;47.062;15.446;2023-03-21T01:53:52;2.70;;;2.50;;
19278;SDS011;9773;47.062;15.446;2023-03-21T01:58:45;2.63;;;2.43;;
19278;SDS011;9773;47.062;15.446;2023-03-21T02:01:11;3.93;;;3.57;;
19278;SDS011;9773;47.062;15.446;2023-03-21T02:03:40;3.93;;;3.63;;
19278;SDS011;9773;47.062;15.446;2023-03-21T02:06:31;5.23;;;4.40;;
19278;SDS011;9773;47.062;15.446;2023-03-21T02:08:59;4.40;;;3.67;;
19278;SDS011;9773;47.062;15.446;2023-03-21T02:11:29;6.57;;;5.13;;
19278;SDS011;9773;47.062;15.446;2023-03-21T02:13:56;5.23;;;4.20;;
19278;SDS011;9773;47.062;15.446;2023-03-21T02:16:32;6.50;;;5.67;;
19278;SDS011;9773;47.062;15.446;2023-03-21T02:27:15;8.07;;;5.53;;
19278;SDS011;9773;47.062;15.446;2023-03-21T02:37:53;5.40;;;4.90;;
19278;SDS011;9773;47.062;15.446;2023-03-21T02:40:33;7.77;;;5.60;;
19278;SDS011;9773;47.062;15.446;2023-03-21T02:43:04;6.17;;;5.37;;
19278;SDS011;9773;47.062;15.446;2023-03-21T02:45:38;5.40;;;4.87;;
19278;SDS011;9773;47.062;15.446;2023-03-21T02:48:13;8.00;;;5.40;;
19278;SDS011;9773;47.062;15.446;2023-03-21T02:50:47;6.10;;;5.47;;
19278;SDS011;9773;47.062;15.446;2023-03-21T02:53:17;5.40;;;4.90;;
19278;SDS011;9773;47.062;15.446;2023-03-21T02:55:46;5.80;;;5.23;;
19278;SDS011;9773;47.062;15.446;2023-03-21T02:58:17;5.80;;;5.30;;
19278;SDS011;9773;47.062;15.446;2023-03-21T03:00:45;5.67;;;5.13;;
19278;SDS011;9773;47.062;15.446;2023-03-21T03:03:12;6.10;;;5.50;;
19278;SDS011;9773;47.062;15.446;2023-03-21T03:05:47;6.60;;;4.80;;
19278;SDS011;9773;47.062;15.446;2023-03-21T03:13:49;5.80;;;5.20;;
19278;SDS011;9773;47.062;15.446;2023-03-21T03:16:21;6.00;;;5.10;;
19278;SDS011;9773;47.062;15.446;2023-03-21T03:19:04;6.13;;;5.53;;
19278;SDS011;9773;47.062;15.446;2023-03-21T03:24:23;6.33;;;5.30;;
19278;SDS011;9773;47.062;15.446;2023-03-21T03:27:05;7.83;;;5.10;;
19278;SDS011;9773;47.062;15.446;2023-03-21T03:29:37;5.33;;;4.83;;
19278;SDS011;9773;47.062;15.446;2023-03-21T03:34:51;4.07;;;3.73;;
19278;SDS011;9773;47.062;15.446;2023-03-21T03:37:23;5.43;;;4.90;;
19278;SDS011;9773;47.062;15.446;2023-03-21T03:39:55;3.60;;;3.30;;
19278;SDS011;9773;47.062;15.446;2023-03-21T03:42:49;3.10;;;2.90;;
19278;SDS011;9773;47.062;15.446;2023-03-21T03:45:18;4.50;;;4.10;;
19278;SDS011;9773;47.062;15.446;2023-03-21T03:47:49;6.47;;;4.33;;
19278;SDS011;9773;47.062;15.446;2023-03-21T03:50:28;5.37;;;4.67;;
19278;SDS011;9773;47.062;15.446;2023-03-21T03:53:05;2.83;;;2.63;;
19278;SDS011;9773;47.062;15.446;2023-03-21T03:55:52;2.37;;;2.17;;
19278;SDS011;9773;47.062;15.446;2023-03-21T03:58:20;4.10;;;2.80;;
19278;SDS011;9773;47.062;15.446;2023-03-21T04:00:48;2.83;;;2.63;;
19278;SDS011;9773;47.062;15.446;2023-03-21T04:03:15;3.00;;;2.80;;
19278;SDS011;9773;47.062;15.446;2023-03-21T04:05:40;2.30;;;2.20;;
19278;SDS011;9773;47.062;15.446;2023-03-21T04:08:10;2.17;;;1.97;;
19278;SDS011;9773;47.062;15.446;2023-03-21T04:10:40;2.17;;;2.07;;
19278;SDS011;9773;47.062;15.446;2023-03-21T04:13:06;2.30;;;2.20;;
19278;SDS011;9773;47.062;15.446;2023-03-21T04:15:33;2.07;;;1.97;;
19278;SDS011;9773;47.062;15.446;2023-03-21T04:17:59;2.90;;;2.60;;
19278;SDS011;9773;47.062;15.446;2023-03-21T04:20:25;3.07;;;2.20;;
19278;SDS011;9773;47.062;15.446;2023-03-21T04:22:50;3.13;;;2.33;;
19278;SDS011;9773;47.062;15.446;2023-03-21T04:25:18;2.27;;;2.17;;
19278;SDS011;9773;47.062;15.446;2023-03-21T04:27:44;2.40;;;2.20;;
19278;SDS011;9773;47.062;15.446;2023-03-21T04:30:12;2.10;;;2.00;;
19278;SDS011;9773;47.062;15.446;2023-03-21T04:32:39;2.50;;;2.30;;
19278;SDS011;9773;47.062;15.446;2023-03-21T04:35:08;2.30;;;2.20;;
19278;SDS011;9773;47.062;15.446;2023-03-21T04:37:35;2.60;;;2.10;;
19278;SDS011;9773;47.062;15.446;2023-03-21T04:40:03;2.60;;;2.43;;
19278;SDS011;9773;47.062;15.446;2023-03-21T04:42:31;2.33;;;1.70;;
19278;SDS011;9773;47.062;15.446;2023-03-21T04:44:57;2.33;;;2.20;;
19278;SDS011;9773;47.062;15.446;2023-03-21T04:47:23;4.60;;;2.30;;
19278;SDS011;9773;47.062;15.446;2023-03-21T04:49:49;2.97;;;2.70;;
19278;SDS011;9773;47.062;15.446;2023-03-21T04:52:15;3.30;;;2.50;;
19278;SDS011;9773;47.062;15.446;2023-03-21T04:54:41;4.33;;;3.97;;
19278;SDS011;9773;47.062;15.446;2023-03-21T04:57:07;6.43;;;4.37;;
19278;SDS011;9773;47.062;15.446;2023-03-21T04:59:33;2.77;;;2.57;;
19278;SDS011;9773;47.062;15.446;2023-03-21T05:01:59;4.83;;;4.20;;
19278;SDS011;9773;47.062;15.446;2023-03-21T05:04:25;4.67;;;4.03;;
19278;SDS011;9773;47.062;15.446;2023-03-21T05:06:52;4.13;;;3.73;;
19278;SDS011;9773;47.062;15.446;2023-03-21T05:09:18;4.27;;;3.43;;
19278;SDS011;9773;47.062;15.446;2023-03-21T05:11:46;4.30;;;3.90;;
19278;SDS011;9773;47.062;15.446;2023-03-21T05:14:14;5.23;;;3.60;;
19278;SDS011;9773;47.062;15.446;2023-03-21T05:16:45;4.93;;;3.80;;
19278;SDS011;9773;47.062;15.446;2023-03-21T05:19:28;4.20;;;3.60;;
19278;SDS011;9773;47.062;15.446;2023-03-21T05:22:05;4.77;;;3.23;;
19278;SDS011;9773;47.062;15.446;2023-03-21T05:24:33;5.30;;;3.83;;
19278;SDS011;9773;47.062;15.446;2023-03-21T05:26:59;6.40;;;4.13;;
19278;SDS011;9773;47.062;15.446;2023-03-21T05:29:27;3.70;;;3.33;;
19278;SDS011;9773;47.062;15.446;2023-03-21T05:31:54;3.57;;;3.27;;
19278;SDS011;9773;47.062;15.446;2023-03-21T05:34:21;5.40;;;3.20;;
19278;SDS011;9773;47.062;15.446;2023-03-21T05:36:47;5.20;;;2.97;;
19278;SDS011;9773;47.062;15.446;2023-03-21T05:39:13;4.00;;;3.20;;
19278;SDS011;9773;47.062;15.446;2023-03-21T05:41:39;6.83;;;3.67;;
19278;SDS011;9773;47.062;15.446;2023-03-21T05:44:04;3.17;;;2.87;;
19278;SDS011;9773;47.062;15.446;2023-03-21T05:46:30;3.03;;;2.83;;
19278;SDS011;9773;47.062;15.446;2023-03-21T05:48:56;2.43;;;2.33;;
19278;SDS011;9773;47.062;15.446;2023-03-21T05:51:22;2.63;;;2.43;;
19278;SDS011;9773;47.062;15.446;2023-03-21T05:53:47;2.70;;;2.50;;
19278;SDS011;9773;47.062;15.446;2023-03-21T05:56:13;2.73;;;2.57;;
19278;SDS011;9773;47.062;15.446;2023-03-21T05:58:39;2.93;;;2.70;;
19278;SDS011;9773;47.062;15.446;2023-03-21T06:01:05;2.70;;;2.50;;
19278;SDS011;9773;47.062;15.446;2023-03-21T06:03:31;2.80;;;2.60;;
19278;SDS011;9773;47.062;15.446;2023-03-21T06:05:57;2.93;;;2.73;;
19278;SDS011;9773;47.062;15.446;2023-03-21T06:08:23;2.67;;;2.47;;
19278;SDS011;9773;47.062;15.446;2023-03-21T06:10:48;4.03;;;2.37;;
19278;SDS011;9773;47.062;15.446;2023-03-21T06:13:14;2.50;;;2.33;;
19278;SDS011;9773;47.062;15.446;2023-03-21T06:15:40;2.33;;;2.23;;
19278;SDS011;9773;47.062;15.446;2023-03-21T06:18:06;3.13;;;2.33;;
19278;SDS011;9773;47.062;15.446;2023-03-21T06:20:32;3.87;;;2.37;;
19278;SDS011;9773;47.062;15.446;2023-03-21T06:22:57;2.80;;;2.20;;
19278;SDS011;9773;47.062;15.446;2023-03-21T06:25:23;3.17;;;2.87;;
19278;SDS011;9773;47.062;15.446;2023-03-21T06:27:49;4.83;;;2.70;;
19278;SDS011;9773;47.062;15.446;2023-03-21T06:30:15;2.67;;;2.47;;
19278;SDS011;9773;47.062;15.446;2023-03-21T06:32:42;3.07;;;2.80;;
19278;SDS011;9773;47.062;15.446;2023-03-21T06:35:07;2.77;;;2.57;;
19278;SDS011;9773;47.062;15.446;2023-03-21T06:37:33;4.13;;;2.67;;
19278;SDS011;9773;47.062;15.446;2023-03-21T06:39:59;2.70;;;2.50;;
19278;SDS011;9773;47.062;15.446;2023-03-21T06:42:25;2.93;;;2.60;;
19278;SDS011;9773;47.062;15.446;2023-03-21T06:44:51;2.70;;;2.50;;
19278;SDS011;9773;47.062;15.446;2023-03-21T06:47:16;3.27;;;2.30;;
19278;SDS011;9773;47.062;15.446;2023-03-21T06:49:42;2.60;;;2.40;;
19278;SDS011;9773;47.062;15.446;2023-03-21T06:52:09;2.63;;;2.43;;
19278;SDS011;9773;47.062;15.446;2023-03-21T06:54:35;2.73;;;2.50;;
19278;SDS011;9773;47.062;15.446;2023-03-21T06:57:01;2.40;;;2.20;;
19278;SDS011;9773;47.062;15.446;2023-03-21T06:59:27;2.60;;;2.40;;
19278;SDS011;9773;47.062;15.446;2023-03-21T07:01:52;2.20;;;2.10;;
19278;SDS011;9773;47.062;15.446;2023-03-21T07:04:18;2.30;;;2.20;;
19278;SDS011;9773;47.062;15.446;2023-03-21T07:06:44;5.00;;;2.10;;
19278;SDS011;9773;47.062;15.446;2023-03-21T07:09:10;3.87;;;3.50;;
19278;SDS011;9773;47.062;15.446;2023-03-21T07:11:36;7.73;;;4.13;;
19278;SDS011;9773;47.062;15.446;2023-03-21T07:14:02;5.47;;;4.33;;
19278;SDS011;9773;47.062;15.446;2023-03-21T07:16:28;7.13;;;5.07;;
19278;SDS011;9773;47.062;15.446;2023-03-21T07:18:54;7.23;;;5.47;;
19278;SDS011;9773;47.062;15.446;2023-03-21T07:21:20;8.97;;;6.00;;
19278;SDS011;9773;47.062;15.446;2023-03-21T07:23:46;10.43;;;5.73;;
19278;SDS011;9773;47.062;15.446;2023-03-21T07:26:14;6.53;;;5.57;;
19278;SDS011;9773;47.062;15.446;2023-03-21T07:28:42;8.77;;;5.47;;
19278;SDS011;9773;47.062;15.446;2023-03-21T07:31:11;10.37;;;5.63;;
19278;SDS011;9773;47.062;15.446;2023-03-21T07:33:39;8.40;;;5.77;;
19278;SDS011;9773;47.062;15.446;2023-03-21T07:36:07;8.37;;;5.33;;
19278;SDS011;9773;47.062;15.446;2023-03-21T07:38:39;6.60;;;5.27;;
19278;SDS011;9773;47.062;15.446;2023-03-21T07:41:05;5.67;;;5.17;;
19278;SDS011;9773;47.062;15.446;2023-03-21T07:43:31;7.67;;;6.23;;
19278;SDS011;9773;47.062;15.446;2023-03-21T07:45:57;9.47;;;6.47;;
19278;SDS011;9773;47.062;15.446;2023-03-21T07:48:24;8.63;;;6.30;;
19278;SDS011;9773;47.062;15.446;2023-03-21T07:50:49;6.40;;;5.80;;
19278;SDS011;9773;47.062;15.446;2023-03-21T07:53:15;6.57;;;5.77;;
19278;SDS011;9773;47.062;15.446;2023-03-21T07:55:41;13.70;;;5.93;;
19278;SDS011;9773;47.062;15.446;2023-03-21T07:58:07;11.70;;;5.53;;
19278;SDS011;9773;47.062;15.446;2023-03-21T08:00:33;10.73;;;5.50;;
19278;SDS011;9773;47.062;15.446;2023-03-21T08:02:58;6.87;;;5.17;;
19278;SDS011;9773;47.062;15.446;2023-03-21T08:05:29;14.40;;;5.67;;
19278;SDS011;9773;47.062;15.446;2023-03-21T08:07:59;5.97;;;4.53;;
19278;SDS011;9773;47.062;15.446;2023-03-21T08:10:25;5.60;;;4.97;;
19278;SDS011;9773;47.062;15.446;2023-03-21T08:12:51;4.67;;;4.23;;
19278;SDS011;9773;47.062;15.446;2023-03-21T08:15:17;8.27;;;5.20;;
19278;SDS011;9773;47.062;15.446;2023-03-21T08:17:43;6.97;;;5.63;;
19278;SDS011;9773;47.062;15.446;2023-03-21T08:20:10;7.23;;;5.07;;
19278;SDS011;9773;47.062;15.446;2023-03-21T08:22:42;9.33;;;4.13;;
19278;SDS011;9773;47.062;15.446;2023-03-21T08:25:09;3.77;;;3.30;;
19278;SDS011;9773;47.062;15.446;2023-03-21T08:27:38;6.13;;;3.30;;
19278;SDS011;9773;47.062;15.446;2023-03-21T08:30:05;5.13;;;3.77;;
19278;SDS011;9773;47.062;15.446;2023-03-21T08:32:31;3.73;;;3.17;;
19278;SDS011;9773;47.062;15.446;2023-03-21T08:35:00;3.77;;;2.80;;
19278;SDS011;9773;47.062;15.446;2023-03-21T08:37:27;2.87;;;2.67;;
19278;SDS011;9773;47.062;15.446;2023-03-21T08:39:53;3.20;;;2.90;;
19278;SDS011;9773;47.062;15.446;2023-03-21T08:42:18;3.33;;;2.80;;
19278;SDS011;9773;47.062;15.446;2023-03-21T08:44:47;2.60;;;2.40;;
19278;SDS011;9773;47.062;15.446;2023-03-21T08:47:13;2.47;;;2.27;;
19278;SDS011;9773;47.062;15.446;2023-03-21T08:49:40;3.37;;;3.17;;
19278;SDS011;9773;47.062;15.446;2023-03-21T08:52:06;4.80;;;3.27;;
19278;SDS011;9773;47.062;15.446;2023-03-21T08:54:32;3.00;;;2.60;;
19278;SDS011;9773;47.062;15.446;2023-03-21T08:56:58;2.23;;;2.10;;
19278;SDS011;9773;47.062;15.446;2023-03-21T08:59:24;2.60;;;2.47;;
19278;SDS011;9773;47.062;15.446;2023-03-21T09:01:50;3.80;;;2.70;;
19278;SDS011;9773;47.062;15.446;2023-03-21T09:04:16;2.87;;;2.67;;
19278;SDS011;9773;47.062;15.446;2023-03-21T09:06:43;2.70;;;2.50;;
19278;SDS011;9773;47.062;15.446;2023-03-21T09:09:13;2.20;;;2.03;;
19278;SDS011;9773;47.062;15.446;2023-03-21T09:11:39;2.63;;;1.90;;
19278;SDS011;9773;47.062;15.446;2023-03-21T09:14:06;1.87;;;1.77;;
19278;SDS011;9773;47.062;15.446;2023-03-21T09:16:32;3.50;;;1.90;;
19278;SDS011;9773;47.062;15.446;2023-03-21T09:18:57;2.00;;;1.90;;
19278;SDS011;9773;47.062;15.446;2023-03-21T09:21:24;2.03;;;1.80;;
19278;SDS011;9773;47.062;15.446;2023-03-21T09:23:52;2.40;;;2.20;;
19278;SDS011;9773;47.062;15.446;2023-03-21T09:26:20;2.37;;;2.17;;
19278;SDS011;9773;47.062;15.446;2023-03-21T09:28:47;2.60;;;1.83;;
19278;SDS011;9773;47.062;15.446;2023-03-21T09:31:14;2.90;;;1.80;;
19278;SDS011;9773;47.062;15.446;2023-03-21T09:33:45;5.50;;;1.90;;
19278;SDS011;9773;47.062;15.446;2023-03-21T09:36:11;1.83;;;1.73;;
19278;SDS011;9773;47.062;15.446;2023-03-21T09:38:41;2.03;;;1.70;;
19278;SDS011;9773;47.062;15.446;2023-03-21T09:49:15;1.30;;;1.30;;
19278;SDS011;9773;47.062;15.446;2023-03-21T09:51:46;1.93;;;1.20;;
19278;SDS011;9773;47.062;15.446;2023-03-21T09:56:55;1.60;;;1.50;;
19278;SDS011;9773;47.062;15.446;2023-03-21T09:59:32;1.80;;;1.20;;
19278;SDS011;9773;47.062;15.446;2023-03-21T10:02:03;1.30;;;1.20;;
19278;SDS011;9773;47.062;15.446;2023-03-21T10:04:44;1.30;;;1.30;;
19278;SDS011;9773;47.062;15.446;2023-03-21T10:07:10;1.40;;;1.40;;
19278;SDS011;9773;47.062;15.446;2023-03-21T10:09:43;1.10;;;1.10;;
19278;SDS011;9773;47.062;15.446;2023-03-21T10:12:16;1.67;;;1.33;;
19278;SDS011;9773;47.062;15.446;2023-03-21T10:14:49;1.20;;;1.20;;
19278;SDS011;9773;47.062;15.446;2023-03-21T10:17:21;1.37;;;1.37;;
19278;SDS011;9773;47.062;15.446;2023-03-21T10:22:40;0.93;;;0.93;;
19278;SDS011;9773;47.062;15.446;2023-03-21T10:25:10;1.20;;;1.20;;
19278;SDS011;9773;47.062;15.446;2023-03-21T10:27:40;2.97;;;1.10;;
19278;SDS011;9773;47.062;15.446;2023-03-21T10:30:07;1.13;;;1.10;;
19278;SDS011;9773;47.062;15.446;2023-03-21T10:32:39;1.20;;;1.20;;
19278;SDS011;9773;47.062;15.446;2023-03-21T10:35:05;1.67;;;1.20;;
19278;SDS011;9773;47.062;15.446;2023-03-21T10:37:33;1.57;;;1.43;;
19278;SDS011;9773;47.062;15.446;2023-03-21T10:40:00;2.13;;;1.40;;
19278;SDS011;9773;47.062;15.446;2023-03-21T10:42:27;1.90;;;1.67;;
19278;SDS011;9773;47.062;15.446;2023-03-21T10:44:57;1.80;;;1.70;;
19278;SDS011;9773;47.062;15.446;2023-03-21T10:47:24;1.37;;;1.20;;
19278;SDS011;9773;47.062;15.446;2023-03-21T10:49:54;3.23;;;1.10;;
19278;SDS011;9773;47.062;15.446;2023-03-21T10:52:21;1.40;;;1.30;;
19278;SDS011;9773;47.062;15.446;2023-03-21T10:54:51;1.03;;;1.00;;
19278;SDS011;9773;47.062;15.446;2023-03-21T10:57:56;2.53;;;1.47;;
19278;SDS011;9773;47.062;15.446;2023-03-21T11:00:27;1.00;;;1.00;;
19278;SDS011;9773;47.062;15.446;2023-03-21T11:02:57;2.00;;;1.30;;
19278;SDS011;9773;47.062;15.446;2023-03-21T11:05:25;1.10;;;1.10;;
19278;SDS011;9773;47.062;15.446;2023-03-21T11:08:09;0.97;;;0.97;;
19278;SDS011;9773;47.062;15.446;2023-03-21T11:13:17;0.70;;;0.70;;
19278;SDS011;9773;47.062;15.446;2023-03-21T11:18:23;0.83;;;0.63;;
19278;SDS011;9773;47.062;15.446;2023-03-21T11:21:03;3.83;;;1.00;;
19278;SDS011;9773;47.062;15.446;2023-03-21T11:23:32;0.93;;;0.93;;
19278;SDS011;9773;47.062;15.446;2023-03-21T11:26:00;1.30;;;0.83;;
19278;SDS011;9773;47.062;15.446;2023-03-21T11:28:39;0.87;;;0.87;;
19278;SDS011;9773;47.062;15.446;2023-03-21T11:31:06;0.93;;;0.93;;
19278;SDS011;9773;47.062;15.446;2023-03-21T11:33:50;1.00;;;1.00;;
19278;SDS011;9773;47.062;15.446;2023-03-21T11:38:46;1.40;;;0.87;;
19278;SDS011;9773;47.062;15.446;2023-03-21T11:41:21;1.23;;;1.23;;
19278;SDS011;9773;47.062;15.446;2023-03-21T11:43:50;1.27;;;1.27;;
19278;SDS011;9773;47.062;15.446;2023-03-21T11:46:21;1.17;;;1.07;;
19278;SDS011;9773;47.062;15.446;2023-03-21T11:48:51;1.30;;;1.20;;
19278;SDS011;9773;47.062;15.446;2023-03-21T11:53:54;1.23;;;1.00;;
19278;SDS011;9773;47.062;15.446;2023-03-21T11:59:51;4.83;;;1.30;;
19278;SDS011;9773;47.062;15.446;2023-03-21T12:02:38;1.60;;;1.10;;
19278;SDS011;9773;47.062;15.446;2023-03-21T12:05:31;1.37;;;1.27;;
19278;SDS011;9773;47.062;15.446;2023-03-21T12:08:02;1.10;;;1.10;;
19278;SDS011;9773;47.062;15.446;2023-03-21T12:10:56;2.33;;;1.27;;
19278;SDS011;9773;47.062;15.446;2023-03-21T12:19:39;1.30;;;1.17;;
19278;SDS011;9773;47.062;15.446;2023-03-21T12:24:57;0.70;;;0.70;;
19278;SDS011;9773;47.062;15.446;2023-03-21T12:30:32;0.80;;;0.80;;
19278;SDS011;9773;47.062;15.446;2023-03-21T12:33:16;4.17;;;1.10;;
19278;SDS011;9773;47.062;15.446;2023-03-21T12:46:30;1.23;;;1.17;;
19278;SDS011;9773;47.062;15.446;2023-03-21T12:55:05;1.23;;;0.97;;
19278;SDS011;9773;47.062;15.446;2023-03-21T12:57:56;1.50;;;1.40;;
19278;SDS011;9773;47.062;15.446;2023-03-21T13:00:50;2.03;;;1.93;;
19278;SDS011;9773;47.062;15.446;2023-03-21T13:06:09;1.40;;;1.40;;
19278;SDS011;9773;47.062;15.446;2023-03-21T13:11:26;1.93;;;1.00;;
19278;SDS011;9773;47.062;15.446;2023-03-21T13:16:34;1.00;;;1.00;;
19278;SDS011;9773;47.062;15.446;2023-03-21T13:19:13;0.80;;;0.80;;
19278;SDS011;9773;47.062;15.446;2023-03-21T13:24:37;0.83;;;0.80;;
19278;SDS011;9773;47.062;15.446;2023-03-21T13:30:31;0.67;;;0.67;;
19278;SDS011;9773;47.062;15.446;2023-03-21T13:32:45;1.03;;;0.70;;
19278;SDS011;9773;47.062;15.446;2023-03-21T13:38:20;1.00;;;1.00;;
19278;SDS011;9773;47.062;15.446;2023-03-21T13:41:06;1.83;;;1.20;;
19278;SDS011;9773;47.062;15.446;2023-03-21T13:43:50;0.80;;;0.80;;
19278;SDS011;9773;47.062;15.446;2023-03-21T13:53:59;2.67;;;1.30;;
19278;SDS011;9773;47.062;15.446;2023-03-21T13:56:25;0.93;;;0.93;;
19278;SDS011;9773;47.062;15.446;2023-03-21T13:58:53;1.10;;;1.10;;
19278;SDS011;9773;47.062;15.446;2023-03-21T14:01:26;0.97;;;0.97;;
19278;SDS011;9773;47.062;15.446;2023-03-21T14:04:19;1.47;;;0.90;;
19278;SDS011;9773;47.062;15.446;2023-03-21T14:06:53;2.30;;;1.00;;
19278;SDS011;9773;47.062;15.446;2023-03-21T14:09:24;0.83;;;0.83;;
19278;SDS011;9773;47.062;15.446;2023-03-21T14:11:55;1.00;;;1.00;;
19278;SDS011;9773;47.062;15.446;2023-03-21T14:14:23;0.97;;;0.97;;
19278;SDS011;9773;47.062;15.446;2023-03-21T14:16:54;0.97;;;0.97;;
19278;SDS011;9773;47.062;15.446;2023-03-21T14:19:27;1.27;;;1.27;;
19278;SDS011;9773;47.062;15.446;2023-03-21T14:21:55;1.20;;;1.20;;
19278;SDS011;9773;47.062;15.446;2023-03-21T14:24:21;1.20;;;1.13;;
19278;SDS011;9773;47.062;15.446;2023-03-21T14:26:48;0.90;;;0.90;;
19278;SDS011;9773;47.062;15.446;2023-03-21T14:29:25;1.13;;;1.00;;
19278;SDS011;9773;47.062;15.446;2023-03-21T14:31:55;1.20;;;1.20;;
19278;SDS011;9773;47.062;15.446;2023-03-21T14:34:22;1.47;;;1.10;;
19278;SDS011;9773;47.062;15.446;2023-03-21T14:36:50;1.33;;;1.03;;
19278;SDS011;9773;47.062;15.446;2023-03-21T14:39:23;2.43;;;1.70;;
19278;SDS011;9773;47.062;15.446;2023-03-21T14:41:54;1.00;;;1.00;;
19278;SDS011;9773;47.062;15.446;2023-03-21T14:44:26;1.13;;;1.13;;
19278;SDS011;9773;47.062;15.446;2023-03-21T14:47:01;1.10;;;0.97;;
19278;SDS011;9773;47.062;15.446;2023-03-21T14:49:32;1.00;;;1.00;;
19278;SDS011;9773;47.062;15.446;2023-03-21T14:52:01;1.70;;;0.90;;
19278;SDS011;9773;47.062;15.446;2023-03-21T14:54:29;1.40;;;1.40;;
19278;SDS011;9773;47.062;15.446;2023-03-21T14:56:56;1.10;;;1.10;;
19278;SDS011;9773;47.062;15.446;2023-03-21T14:59:28;1.50;;;1.40;;
19278;SDS011;9773;47.062;15.446;2023-03-21T15:02:02;1.20;;;1.20;;
19278;SDS011;9773;47.062;15.446;2023-03-21T15:04:32;1.10;;;1.10;;
19278;SDS011;9773;47.062;15.446;2023-03-21T15:06:59;1.03;;;1.03;;
19278;SDS011;9773;47.062;15.446;2023-03-21T15:09:30;1.47;;;1.10;;
19278;SDS011;9773;47.062;15.446;2023-03-21T15:11:58;1.10;;;1.10;;
19278;SDS011;9773;47.062;15.446;2023-03-21T15:14:30;1.10;;;1.10;;
19278;SDS011;9773;47.062;15.446;2023-03-21T15:16:59;1.90;;;0.87;;
19278;SDS011;9773;47.062;15.446;2023-03-21T15:19:32;1.20;;;1.10;;
19278;SDS011;9773;47.062;15.446;2023-03-21T15:22:08;1.20;;;1.20;;
19278;SDS011;9773;47.062;15.446;2023-03-21T15:24:57;7.20;;;6.27;;
19278;SDS011;9773;47.062;15.446;2023-03-21T15:27:27;1.97;;;1.87;;
19278;SDS011;9773;47.062;15.446;2023-03-21T15:29:56;1.87;;;1.77;;
19278;SDS011;9773;47.062;15.446;2023-03-21T15:32:23;1.73;;;1.63;;
19278;SDS011;9773;47.062;15.446;2023-03-21T15:34:55;1.70;;;1.70;;
19278;SDS011;9773;47.062;15.446;2023-03-21T15:37:33;1.13;;;1.13;;
19278;SDS011;9773;47.062;15.446;2023-03-21T15:42:43;1.97;;;1.87;;
19278;SDS011;9773;47.062;15.446;2023-03-21T15:45:25;2.20;;;2.10;;
19278;SDS011;9773;47.062;15.446;2023-03-21T15:50:40;2.00;;;1.90;;
19278;SDS011;9773;47.062;15.446;2023-03-21T15:53:15;5.10;;;2.70;;
19278;SDS011;9773;47.062;15.446;2023-03-21T15:55:43;1.67;;;1.60;;
19278;SDS011;9773;47.062;15.446;2023-03-21T15:58:26;3.37;;;1.50;;
19278;SDS011;9773;47.062;15.446;2023-03-21T16:01:00;1.30;;;1.30;;
19278;SDS011;9773;47.062;15.446;2023-03-21T16:04:01;1.10;;;1.10;;
19278;SDS011;9773;47.062;15.446;2023-03-21T16:06:32;1.30;;;1.30;;
19278;SDS011;9773;47.062;15.446;2023-03-21T16:11:49;2.47;;;2.33;;
19278;SDS011;9773;47.062;15.446;2023-03-21T16:14:20;2.10;;;2.00;;
19278;SDS011;9773;47.062;15.446;2023-03-21T16:16:48;2.23;;;2.10;;
19278;SDS011;9773;47.062;15.446;2023-03-21T16:19:14;1.77;;;1.67;;
19278;SDS011;9773;47.062;15.446;2023-03-21T16:21:40;1.60;;;1.40;;
19278;SDS011;9773;47.062;15.446;2023-03-21T16:24:07;1.20;;;1.20;;
19278;SDS011;9773;47.062;15.446;2023-03-21T16:26:35;1.10;;;1.10;;
19278;SDS011;9773;47.062;15.446;2023-03-21T16:29:03;1.30;;;1.30;;
19278;SDS011;9773;47.062;15.446;2023-03-21T16:31:32;1.27;;;1.27;;
19278;SDS011;9773;47.062;15.446;2023-03-21T16:34:00;1.17;;;1.17;;
19278;SDS011;9773;47.062;15.446;2023-03-21T16:36:28;1.00;;;1.00;;
19278;SDS011;9773;47.062;15.446;2023-03-21T16:38:56;4.77;;;2.90;;
19278;SDS011;9773;47.062;15.446;2023-03-21T16:41:22;1.40;;;1.40;;
19278;SDS011;9773;47.062;15.446;2023-03-21T16:43:50;0.90;;;0.90;;
19278;SDS011;9773;47.062;15.446;2023-03-21T16:46:18;0.90;;;0.90;;
19278;SDS011;9773;47.062;15.446;2023-03-21T16:48:49;1.10;;;1.10;;
19278;SDS011;9773;47.062;15.446;2023-03-21T16:51:23;1.00;;;1.00;;
19278;SDS011;9773;47.062;15.446;2023-03-21T16:53:53;1.03;;;1.03;;
19278;SDS011;9773;47.062;15.446;2023-03-21T16:56:21;1.10;;;1.10;;
19278;SDS011;9773;47.062;15.446;2023-03-21T16:58:53;2.03;;;1.00;;
19278;SDS011;9773;47.062;15.446;2023-03-21T17:01:20;0.90;;;0.90;;
19278;SDS011;9773;47.062;15.446;2023-03-21T17:03:50;1.00;;;1.00;;